EYPA/PLQ METAR and TAF weather

Enter ICAO airport designator
Station Type Date Time Source
EYPA METAR 2018/12/12 16:50 UTC NOAA

EYPA 121650Z 04008KT 010V070 9999 OVC013 01/M01 Q1026 R01/1///95


Station Type Date Time Source
EYPA Decoded METAR 2018/12/12 16:50 UTC NOAA

Palanga Intl., Lithuania (EYPA) 55-55-12N 021-03E
Dec 12, 2018 - 11:50 AM EST / 2018.12.12 1650 UTC
Wind: from the NE (040 degrees) at 9 MPH (8 KT) (direction variable):0
Visibility: greater than 7 mile(s):0
Sky conditions: overcast
Temperature: 33 F (1 C)
Windchill: 24 F (-4 C):1
Dew Point: 30 F (-1 C)
Relative Humidity: 86%
Pressure (altimeter): 30.30 in. Hg (1026 hPa)
ob: EYPA 121650Z 04008KT 010V070 9999 OVC013 01/M01 Q1026 R01/1///95
cycle: 17

Station Type Date Time Source
EYPA TAF 2018/12/12 18:06 UTC NOAA

TAF TAF EYPA 121701Z 1218/1318 04014KT 9000 OVC010
TEMPO 1218/1306 5000 -SN BR BKN006


Example: see airport list